Time;durP1;ratioP1;P1;durP2;ratioP2;P2;SDS_P1;SDS_P2;PMS_P1;PMS_P2;Temp;Humidity;BMP_temperature;BMP_pressure;BME280_temperature;BME280_humidity;BME280_pressure;Samples;Min_cycle;Max_cycle;Signal;HPM_P1;HPM_P2
2023/05/30 00:04:03;;;;;;;;;;;;;;;12.45;51.00098;102890.3;;;;-69
2023/05/30 00:09:04;;;;;;;;;;;;;;;12.44;51.50488;102898.2;;;;-69
2023/05/30 00:14:04;;;;;;;;;;;;;;;12.46;51.125;102900.7;;;;-69
2023/05/30 00:19:04;;;;;;;;;;;;;;;12.48;51.11719;102901.6;;;;-69
2023/05/30 00:24:05;;;;;;;;;;;;;;;12.51;51.43457;102901.3;;;;-70
2023/05/30 00:24:36;;;;;;;0.2;0.1;;;;;;;;;;;;;-69
2023/05/30 00:29:03;;;;;;;;;;;;;;;12.57;51.09473;102908.9;;;;-70
2023/05/30 00:34:03;;;;;;;;;;;;;;;12.58;51.03809;102907.5;;;;-71
2023/05/30 00:39:03;;;;;;;;;;;;;;;12.61;50.86328;102902.6;;;;-70
2023/05/30 00:44:03;;;;;;;;;;;;;;;12.63;50.86523;102899.3;;;;-69
2023/05/30 00:49:03;;;;;;;;;;;;;;;12.64;51.5625;102899;;;;-69
2023/05/30 00:54:06;;;;;;;;;;;;;;;12.69;51.60059;102900.4;;;;-69
2023/05/30 00:54:38;;;;;;;0.2;0.1;;;;;;;;;;;;;-69
2023/05/30 00:59:03;;;;;;;;;;;;;;;12.71;51.5127;102898.6;;;;-70
2023/05/30 01:04:04;;;;;;;;;;;;;;;12.72;51.17969;102898.9;;;;-70
2023/05/30 01:09:06;;;;;;;;;;;;;;;12.74;51.6084;102902.9;;;;-69
2023/05/30 01:14:10;;;;;;;;;;;;;;;12.74;51.83105;102902;;;;-69
2023/05/30 01:19:14;;;;;;;;;;;;;;;12.73;51.51563;102907.1;;;;-69
2023/05/30 01:24:10;;;;;;;;;;;;;;;12.73;51.8418;102897.2;;;;-69
2023/05/30 01:24:44;;;;;;;0.2;0.1;;;;;;;;;;;;;-69
2023/05/30 01:29:04;;;;;;;;;;;;;;;12.74;51.83105;102902.9;;;;-70
2023/05/30 01:34:04;;;;;;;;;;;;;;;12.76;51.67676;102901.9;;;;-71
2023/05/30 01:39:03;;;;;;;;;;;;;;;12.75;51.80957;102908.9;;;;-69
2023/05/30 01:44:06;;;;;;;;;;;;;;;12.76;51.52051;102903.4;;;;-70
2023/05/30 01:49:08;;;;;;;;;;;;;;;12.77;51.52148;102900.7;;;;-70
2023/05/30 01:54:05;;;;;;;;;;;;;;;12.77;51.47656;102909.1;;;;-68
2023/05/30 01:54:43;;;;;;;0.2;0.1;;;;;;;;;;;;;-69
2023/05/30 01:59:03;;;;;;;;;;;;;;;12.77;51.44336;102907.9;;;;-70
2023/05/30 02:04:03;;;;;;;;;;;;;;;12.74;51.33789;102905.4;;;;-69
2023/05/30 02:09:03;;;;;;;;;;;;;;;12.76;51.62012;102901.7;;;;-70
2023/05/30 02:14:05;;;;;;;;;;;;;;;12.72;51.60449;102906;;;;-71
2023/05/30 02:19:03;;;;;;;;;;;;;;;12.73;51.68457;102908.7;;;;-70
2023/05/30 02:24:03;;;;;;;;;;;;;;;12.69;52.14063;102915.1;;;;-71
2023/05/30 02:24:42;;;;;;;0.2;0.1;;;;;;;;;;;;;-70
2023/05/30 02:29:03;;;;;;;;;;;;;;;12.72;51.95215;102911;;;;-71
2023/05/30 02:34:03;;;;;;;;;;;;;;;12.69;52.37402;102907.2;;;;-68
2023/05/30 02:39:03;;;;;;;;;;;;;;;12.72;52.5127;102913.7;;;;-70
2023/05/30 02:44:06;;;;;;;;;;;;;;;12.68;52.69922;102914.2;;;;-68
2023/05/30 02:49:03;;;;;;;;;;;;;;;12.68;52.32813;102920.2;;;;-68
2023/05/30 02:54:05;;;;;;;;;;;;;;;12.69;52.35254;102925.6;;;;-70
2023/05/30 02:54:46;;;;;;;0.2;0.1;;;;;;;;;;;;;-71
2023/05/30 02:59:04;;;;;;;;;;;;;;;12.68;52.46387;102930.2;;;;-70
2023/05/30 03:04:17;;;;;;;;;;;;;;;12.66;52.24902;102933.5;;;;-70
2023/05/30 03:09:04;;;;;;;;;;;;;;;12.69;52.09473;102932.1;;;;-69
2023/05/30 03:14:03;;;;;;;;;;;;;;;12.69;52.51953;102933.2;;;;-70
2023/05/30 03:19:03;;;;;;;;;;;;;;;12.68;52.49609;102942;;;;-68
2023/05/30 03:24:03;;;;;;;;;;;;;;;12.66;52.4043;102942;;;;-71
2023/05/30 03:24:46;;;;;;;0.2;0.1;;;;;;;;;;;;;-68
2023/05/30 03:29:03;;;;;;;;;;;;;;;12.65;52.37012;102943;;;;-69
2023/05/30 03:34:04;;;;;;;;;;;;;;;12.65;52.56152;102937.1;;;;-72
2023/05/30 03:39:03;;;;;;;;;;;;;;;12.64;52.64941;102940.8;;;;-69
2023/05/30 03:44:03;;;;;;;;;;;;;;;12.61;52.33203;102938.1;;;;-69
2023/05/30 03:49:03;;;;;;;;;;;;;;;12.63;52.41211;102940.4;;;;-67
2023/05/30 03:54:04;;;;;;;;;;;;;;;12.61;52.31055;102938.5;;;;-70
2023/05/30 03:54:48;;;;;;;0.2;0.1;;;;;;;;;;;;;-69
2023/05/30 03:59:03;;;;;;;;;;;;;;;12.62;52.33398;102945.4;;;;-69
2023/05/30 04:04:03;;;;;;;;;;;;;;;12.61;52.16406;102948.4;;;;-69
2023/05/30 04:09:03;;;;;;;;;;;;;;;12.63;52.25586;102955.1;;;;-72
2023/05/30 04:14:03;;;;;;;;;;;;;;;12.64;51.98828;102955.3;;;;-71
2023/05/30 04:19:03;;;;;;;;;;;;;;;12.66;51.85645;102953.7;;;;-70
2023/05/30 04:24:03;;;;;;;;;;;;;;;12.68;51.9248;102947.8;;;;-70
2023/05/30 04:24:50;;;;;;;0.2;0.1;;;;;;;;;;;;;-69
2023/05/30 04:29:03;;;;;;;;;;;;;;;12.69;51.95996;102950;;;;-69
2023/05/30 04:34:03;;;;;;;;;;;;;;;12.72;51.97559;102949.8;;;;-69
2023/05/30 04:39:06;;;;;;;;;;;;;;;12.74;51.88867;102949.6;;;;-70
2023/05/30 04:44:03;;;;;;;;;;;;;;;12.78;51.94922;102952.5;;;;-70
2023/05/30 04:49:05;;;;;;;;;;;;;;;12.85;51.79883;102951;;;;-71
2023/05/30 04:54:07;;;;;;;;;;;;;;;12.89;51.91699;102953.8;;;;-71
2023/05/30 04:54:53;;;;;;;0.2;0.1;;;;;;;;;;;;;-72
2023/05/30 04:59:05;;;;;;;;;;;;;;;12.95;51.58691;102960.5;;;;-71
2023/05/30 05:04:03;;;;;;;;;;;;;;;13;51.7168;102960.5;;;;-71
2023/05/30 05:09:04;;;;;;;;;;;;;;;13.05;51.56445;102968.7;;;;-71
2023/05/30 05:14:03;;;;;;;;;;;;;;;13.1;51.69434;102963;;;;-70
2023/05/30 05:19:03;;;;;;;;;;;;;;;13.16;51.72363;102959.8;;;;-72
2023/05/30 05:24:03;;;;;;;;;;;;;;;13.23;51.67578;102959.4;;;;-70
2023/05/30 05:24:55;;;;;;;0.3;0.2;;;;;;;;;;;;;-71
2023/05/30 05:29:03;;;;;;;;;;;;;;;13.29;51.60547;102960.1;;;;-71
2023/05/30 05:34:03;;;;;;;;;;;;;;;13.37;51.56934;102961.5;;;;-72
2023/05/30 05:39:03;;;;;;;;;;;;;;;13.46;51.65918;102963;;;;-69
2023/05/30 05:44:03;;;;;;;;;;;;;;;13.54;51.33008;102968;;;;-72
2023/05/30 05:49:04;;;;;;;;;;;;;;;13.61;51.40527;102968.9;;;;-71
2023/05/30 05:54:03;;;;;;;;;;;;;;;13.67;51.54883;102970.2;;;;-69
2023/05/30 05:54:54;;;;;;;0.2;0.1;;;;;;;;;;;;;-70
2023/05/30 05:59:03;;;;;;;;;;;;;;;13.73;51.35254;102974.7;;;;-72
2023/05/30 06:04:04;;;;;;;;;;;;;;;13.78;51.42676;102979.1;;;;-71
2023/05/30 06:09:04;;;;;;;;;;;;;;;13.84;51.46777;102976.8;;;;-72
2023/05/30 06:14:03;;;;;;;;;;;;;;;13.88;51.49512;102976.2;;;;-71
2023/05/30 06:19:03;;;;;;;;;;;;;;;13.95;52.09766;102966.5;;;;-71
2023/05/30 06:24:03;;;;;;;;;;;;;;;14.04;51.97363;102971.8;;;;-71
2023/05/30 06:24:56;;;;;;;0.7;0.6;;;;;;;;;;;;;-72
2023/05/30 06:29:03;;;;;;;;;;;;;;;14.15;51.80664;102968.3;;;;-71
2023/05/30 06:34:03;;;;;;;;;;;;;;;14.29;51.79004;102976.7;;;;-70
2023/05/30 06:39:03;;;;;;;;;;;;;;;14.41;52.36719;102970.5;;;;-71
2023/05/30 06:44:03;;;;;;;;;;;;;;;14.55;52.28223;102972.1;;;;-70
2023/05/30 06:49:03;;;;;;;;;;;;;;;14.68;51.93652;102968.5;;;;-69
2023/05/30 06:54:03;;;;;;;;;;;;;;;14.76;52.36328;102974;;;;-72
2023/05/30 06:54:57;;;;;;;0.2;0.1;;;;;;;;;;;;;-71
2023/05/30 06:59:03;;;;;;;;;;;;;;;14.85;52.47461;102983.6;;;;-71
2023/05/30 07:04:03;;;;;;;;;;;;;;;14.88;52.55859;102986.6;;;;-71
2023/05/30 07:09:03;;;;;;;;;;;;;;;14.96;52.54492;102985.5;;;;-69
2023/05/30 07:14:03;;;;;;;;;;;;;;;15.03;52.42969;102983;;;;-74
2023/05/30 07:19:08;;;;;;;;;;;;;;;15.14;52.40918;102988.2;;;;-74
2023/05/30 07:24:03;;;;;;;;;;;;;;;15.25;52.36523;102985.6;;;;-72
2023/05/30 07:24:59;;;;;;;0.2;0;;;;;;;;;;;;;-71
2023/05/30 07:29:03;;;;;;;;;;;;;;;15.4;51.86328;102985.2;;;;-72
2023/05/30 07:34:03;;;;;;;;;;;;;;;15.55;51.21582;102985.5;;;;-72
2023/05/30 07:39:04;;;;;;;;;;;;;;;15.66;51.03613;102987.2;;;;-72
2023/05/30 07:44:06;;;;;;;;;;;;;;;15.77;50.81348;102994.4;;;;-70
2023/05/30 07:49:03;;;;;;;;;;;;;;;15.9;50.62402;102992.2;;;;-70
2023/05/30 07:54:03;;;;;;;;;;;;;;;15.96;50.63086;102994.6;;;;-71
2023/05/30 07:55:02;;;;;;;0.2;0;;;;;;;;;;;;;-73
2023/05/30 07:59:03;;;;;;;;;;;;;;;16.01;50.5459;102993.1;;;;-69
2023/05/30 08:04:06;;;;;;;;;;;;;;;16.03;50.94434;102991.2;;;;-71
2023/05/30 08:09:05;;;;;;;;;;;;;;;16.08;50.88281;102987.6;;;;-70
2023/05/30 08:14:03;;;;;;;;;;;;;;;16.14;50.82129;102987.5;;;;-71
2023/05/30 08:19:03;;;;;;;;;;;;;;;16.17;51.1416;102987.8;;;;-71
2023/05/30 08:24:03;;;;;;;;;;;;;;;16.15;51.43262;102984.3;;;;-73
2023/05/30 08:25:07;;;;;;;0.2;0.1;;;;;;;;;;;;;-72
2023/05/30 08:29:03;;;;;;;;;;;;;;;16.12;51.83496;102990.4;;;;-71
2023/05/30 08:34:05;;;;;;;;;;;;;;;16.11;52.16211;102984.6;;;;-70
2023/05/30 08:39:03;;;;;;;;;;;;;;;16.13;52.40234;102978.7;;;;-70
2023/05/30 08:44:03;;;;;;;;;;;;;;;16.12;52.49219;102974.7;;;;-70
2023/05/30 08:49:03;;;;;;;;;;;;;;;16.12;52.85254;102973.5;;;;-73
2023/05/30 08:54:06;;;;;;;;;;;;;;;16.1;53.03125;102977.6;;;;-71
2023/05/30 08:55:10;;;;;;;0.2;0.1;;;;;;;;;;;;;-70
2023/05/30 08:59:05;;;;;;;;;;;;;;;16.04;53.22754;102978.3;;;;-71
2023/05/30 09:04:03;;;;;;;;;;;;;;;16.03;53.75781;102978.6;;;;-70
2023/05/30 09:09:06;;;;;;;;;;;;;;;16.06;53.98633;102981.8;;;;-70
2023/05/30 09:14:04;;;;;;;;;;;;;;;16.09;53.86523;102981.5;;;;-70
2023/05/30 09:19:03;;;;;;;;;;;;;;;16.07;54.05566;102977.2;;;;-70
2023/05/30 09:24:03;;;;;;;;;;;;;;;16.02;54.68262;102979.4;;;;-70
2023/05/30 09:25:09;;;;;;;0.2;0;;;;;;;;;;;;;-72
2023/05/30 09:29:15;;;;;;;;;;;;;;;16.02;54.91895;102986.7;;;;-69
2023/05/30 09:34:05;;;;;;;;;;;;;;;16.08;55.14063;102975;;;;-70
2023/05/30 09:39:07;;;;;;;;;;;;;;;16.14;55.23926;102974.8;;;;-69
2023/05/30 09:44:07;;;;;;;;;;;;;;;16.27;55.01758;102966.4;;;;-70
2023/05/30 09:49:03;;;;;;;;;;;;;;;16.4;54.6377;102965.6;;;;-71
2023/05/30 09:54:04;;;;;;;;;;;;;;;16.46;54.77051;102965.3;;;;-70
2023/05/30 09:55:12;;;;;;;0.2;0;;;;;;;;;;;;;-70
2023/05/30 09:59:06;;;;;;;;;;;;;;;16.48;54.38965;102962.8;;;;-70
2023/05/30 10:04:03;;;;;;;;;;;;;;;16.52;54.54102;102966.8;;;;-70
2023/05/30 10:09:03;;;;;;;;;;;;;;;16.54;54.28223;102971.1;;;;-69
2023/05/30 10:14:03;;;;;;;;;;;;;;;16.51;54.86719;102968.6;;;;-69
2023/05/30 10:19:05;;;;;;;;;;;;;;;16.61;54.51758;102964.7;;;;-69
2023/05/30 10:24:07;;;;;;;;;;;;;;;16.7;54.37012;102963.3;;;;-70
2023/05/30 10:25:14;;;;;;;0.2;0;;;;;;;;;;;;;-70
2023/05/30 10:29:05;;;;;;;;;;;;;;;16.76;54.28711;102949.7;;;;-70
2023/05/30 10:34:05;;;;;;;;;;;;;;;16.88;53.93945;102954.6;;;;-71
2023/05/30 10:39:10;;;;;;;;;;;;;;;16.96;54.0625;102957.3;;;;-70
2023/05/30 10:44:08;;;;;;;;;;;;;;;17.02;53.95703;102954.3;;;;-69
2023/05/30 10:49:05;;;;;;;;;;;;;;;17.17;53.69238;102956.6;;;;-69
2023/05/30 10:54:04;;;;;;;;;;;;;;;17.21;53.37988;102956.4;;;;-70
2023/05/30 10:55:18;;;;;;;0.2;0.1;;;;;;;;;;;;;-68
2023/05/30 10:59:03;;;;;;;;;;;;;;;17.2;53.18555;102951.5;;;;-69
2023/05/30 11:04:06;;;;;;;;;;;;;;;17.19;53.36621;102952.1;;;;-70
2023/05/30 11:09:10;;;;;;;;;;;;;;;17.18;53.43262;102960.3;;;;-69
2023/05/30 11:14:06;;;;;;;;;;;;;;;17.16;53.33984;102950.3;;;;-70
2023/05/30 11:19:13;;;;;;;;;;;;;;;17.2;53.40137;102946.9;;;;-68
2023/05/30 11:24:11;;;;;;;;;;;;;;;17.36;53.0918;102945.6;;;;-70
2023/05/30 11:25:25;;;;;;;0.3;0.1;;;;;;;;;;;;;-70
2023/05/30 11:29:16;;;;;;;;;;;;;;;17.57;52.31348;102947.2;;;;-69
2023/05/30 11:34:03;;;;;;;;;;;;;;;17.59;52.22461;102938.3;;;;-69
2023/05/30 11:39:03;;;;;;;;;;;;;;;17.62;52.41992;102936.3;;;;-68
2023/05/30 11:44:03;;;;;;;;;;;;;;;17.69;52.12305;102933.8;;;;-69
2023/05/30 11:49:07;;;;;;;;;;;;;;;17.68;52.09863;102943;;;;-69
2023/05/30 11:54:04;;;;;;;;;;;;;;;17.63;52.4209;102946.1;;;;-70
2023/05/30 11:55:21;;;;;;;0.2;0;;;;;;;;;;;;;-69
2023/05/30 11:59:03;;;;;;;;;;;;;;;17.56;52.67383;102936.2;;;;-69
2023/05/30 12:04:03;;;;;;;;;;;;;;;17.54;52.78516;102934.2;;;;-70
2023/05/30 12:09:03;;;;;;;;;;;;;;;17.6;52.81445;102926.5;;;;-69
2023/05/30 12:14:03;;;;;;;;;;;;;;;17.73;52.5459;102927.9;;;;-69
2023/05/30 12:19:04;;;;;;;;;;;;;;;17.83;52.27539;102921.5;;;;-70
2023/05/30 12:24:11;;;;;;;;;;;;;;;17.94;51.8916;102913;;;;-68
2023/05/30 12:25:28;;;;;;;0.2;0.1;;;;;;;;;;;;;-70
2023/05/30 12:29:10;;;;;;;;;;;;;;;18.01;51.77539;102910.7;;;;-69
2023/05/30 12:34:07;;;;;;;;;;;;;;;18.19;51.41992;102909.1;;;;-70
2023/05/30 12:39:03;;;;;;;;;;;;;;;18.26;51.12207;102904.4;;;;-69
2023/05/30 12:44:03;;;;;;;;;;;;;;;18.23;51.2207;102906.2;;;;-69
2023/05/30 12:49:07;;;;;;;;;;;;;;;18.24;51.20996;102900.6;;;;-71
2023/05/30 12:54:08;;;;;;;;;;;;;;;18.31;51.22949;102894.1;;;;-69
2023/05/30 12:55:29;;;;;;;0.3;0.1;;;;;;;;;;;;;-69
2023/05/30 12:59:03;;;;;;;;;;;;;;;18.38;51.10156;102895.6;;;;-69
2023/05/30 13:04:03;;;;;;;;;;;;;;;18.32;51.08301;102905.5;;;;-70
2023/05/30 13:09:06;;;;;;;;;;;;;;;18.22;51.21875;102906.4;;;;-69
2023/05/30 13:14:03;;;;;;;;;;;;;;;18.2;51.28613;102901.2;;;;-69
2023/05/30 13:19:03;;;;;;;;;;;;;;;18.27;51.14551;102897.8;;;;-70
2023/05/30 13:24:03;;;;;;;;;;;;;;;18.2;51.13867;102906;;;;-71
2023/05/30 13:25:29;;;;;;;0.2;0;;;;;;;;;;;;;-71
2023/05/30 13:29:03;;;;;;;;;;;;;;;18.07;51.40625;102902;;;;-71
2023/05/30 13:34:03;;;;;;;;;;;;;;;18;51.64941;102901.1;;;;-71
2023/05/30 13:39:03;;;;;;;;;;;;;;;18.03;52.00391;102897.5;;;;-70
2023/05/30 13:44:03;;;;;;;;;;;;;;;18.16;52.17773;102884.6;;;;-71
2023/05/30 13:49:04;;;;;;;;;;;;;;;18.33;51.94727;102887.7;;;;-69
2023/05/30 13:54:03;;;;;;;;;;;;;;;18.49;51.55762;102889.1;;;;-70
2023/05/30 13:55:35;;;;;;;0.2;0;;;;;;;;;;;;;-70
2023/05/30 13:59:03;;;;;;;;;;;;;;;18.63;51.19824;102875.1;;;;-71
2023/05/30 14:04:03;;;;;;;;;;;;;;;18.72;50.95898;102874.7;;;;-69
2023/05/30 14:09:04;;;;;;;;;;;;;;;18.85;50.68945;102870.7;;;;-70
2023/05/30 14:14:05;;;;;;;;;;;;;;;19;50.29688;102865.3;;;;-70
2023/05/30 14:19:08;;;;;;;;;;;;;;;19.13;49.94727;102858.4;;;;-70
2023/05/30 14:24:03;;;;;;;;;;;;;;;19.28;49.71387;102855;;;;-70
2023/05/30 14:25:34;;;;;;;0.2;0.1;;;;;;;;;;;;;-69
2023/05/30 14:29:03;;;;;;;;;;;;;;;19.37;49.47363;102846.4;;;;-70
2023/05/30 14:34:03;;;;;;;;;;;;;;;19.46;49.0957;102844;;;;-70
2023/05/30 14:39:04;;;;;;;;;;;;;;;19.62;48.82813;102848.5;;;;-70
2023/05/30 14:44:03;;;;;;;;;;;;;;;19.7;48.42676;102846.4;;;;-69
2023/05/30 14:49:03;;;;;;;;;;;;;;;19.66;48.35352;102839.2;;;;-70
2023/05/30 14:54:03;;;;;;;;;;;;;;;19.64;48.16895;102829.5;;;;-70
2023/05/30 14:55:38;;;;;;;0.2;0;;;;;;;;;;;;;-70
2023/05/30 14:59:05;;;;;;;;;;;;;;;19.57;48.24121;102830.2;;;;-71
2023/05/30 15:04:03;;;;;;;;;;;;;;;19.47;48.11621;102823.3;;;;-69
2023/05/30 15:09:03;;;;;;;;;;;;;;;19.47;48.10547;102826.4;;;;-71
2023/05/30 15:14:03;;;;;;;;;;;;;;;19.44;48.31738;102824;;;;-71
2023/05/30 15:19:03;;;;;;;;;;;;;;;19.42;48.33984;102832.5;;;;-70
2023/05/30 15:24:03;;;;;;;;;;;;;;;19.41;48.36035;102832.7;;;;-71
2023/05/30 15:25:41;;;;;;;0.2;0;;;;;;;;;;;;;-70
2023/05/30 15:29:03;;;;;;;;;;;;;;;19.35;48.45703;102834.5;;;;-70
2023/05/30 15:34:03;;;;;;;;;;;;;;;19.24;48.50195;102837.3;;;;-69
2023/05/30 15:39:03;;;;;;;;;;;;;;;19.15;48.91406;102839.9;;;;-68
2023/05/30 15:44:06;;;;;;;;;;;;;;;19.04;49.15234;102844.3;;;;-70
2023/05/30 15:49:03;;;;;;;;;;;;;;;18.93;49.5498;102842.1;;;;-70
2023/05/30 15:54:03;;;;;;;;;;;;;;;18.85;49.67676;102846.3;;;;-70
2023/05/30 15:55:44;;;;;;;0.2;0.1;;;;;;;;;;;;;-70
2023/05/30 15:59:04;;;;;;;;;;;;;;;18.76;49.89355;102840;;;;-70
2023/05/30 16:04:03;;;;;;;;;;;;;;;18.68;50.22656;102840.9;;;;-71
2023/05/30 16:09:05;;;;;;;;;;;;;;;18.62;50.59473;102839.1;;;;-70
2023/05/30 16:14:03;;;;;;;;;;;;;;;18.58;50.72656;102832.1;;;;-72
2023/05/30 16:19:03;;;;;;;;;;;;;;;18.54;50.7002;102830;;;;-69
2023/05/30 16:24:03;;;;;;;;;;;;;;;18.48;50.875;102830.2;;;;-71
2023/05/30 16:25:47;;;;;;;0.2;0;;;;;;;;;;;;;-70
2023/05/30 16:29:03;;;;;;;;;;;;;;;18.41;51.01367;102826.8;;;;-69
2023/05/30 16:34:03;;;;;;;;;;;;;;;18.37;51.2373;102830.8;;;;-71
2023/05/30 16:39:04;;;;;;;;;;;;;;;18.24;51.4707;102821.8;;;;-71
2023/05/30 16:44:03;;;;;;;;;;;;;;;18.14;51.79004;102814.8;;;;-69
2023/05/30 16:49:06;;;;;;;;;;;;;;;18.07;51.70215;102822.9;;;;-70
2023/05/30 16:54:03;;;;;;;;;;;;;;;18;52.12598;102828.7;;;;-70
2023/05/30 16:55:50;;;;;;;0.2;0;;;;;;;;;;;;;-70
2023/05/30 16:59:03;;;;;;;;;;;;;;;17.88;52.16699;102831.3;;;;-72
2023/05/30 17:04:03;;;;;;;;;;;;;;;17.82;52.43262;102833;;;;-70
2023/05/30 17:09:03;;;;;;;;;;;;;;;17.72;52.37598;102831.6;;;;-73
2023/05/30 17:14:04;;;;;;;;;;;;;;;17.66;52.45898;102834.9;;;;-72
2023/05/30 17:19:04;;;;;;;;;;;;;;;17.62;52.73828;102838.3;;;;-71
2023/05/30 17:24:04;;;;;;;;;;;;;;;17.51;52.69141;102835.6;;;;-71
2023/05/30 17:25:52;;;;;;;0.7;0.4;;;;;;;;;;;;;-72
2023/05/30 17:29:06;;;;;;;;;;;;;;;17.43;53.28223;102829.5;;;;-71
2023/05/30 17:34:03;;;;;;;;;;;;;;;17.34;53.44043;102826;;;;-70
2023/05/30 17:39:04;;;;;;;;;;;;;;;17.28;53.5127;102824.7;;;;-70
2023/05/30 17:44:03;;;;;;;;;;;;;;;17.22;53.66504;102836.5;;;;-72
2023/05/30 17:49:03;;;;;;;;;;;;;;;17.18;53.01465;102828.7;;;;-71
2023/05/30 17:54:03;;;;;;;;;;;;;;;17.12;53.62891;102823.7;;;;-71
2023/05/30 17:55:56;;;;;;;0.2;0.1;;;;;;;;;;;;;-70
2023/05/30 17:59:05;;;;;;;;;;;;;;;17.06;53.46387;102831.8;;;;-71
2023/05/30 18:04:03;;;;;;;;;;;;;;;17.02;53.50488;102834.1;;;;-72
2023/05/30 18:09:03;;;;;;;;;;;;;;;16.94;53.78809;102837.1;;;;-70
2023/05/30 18:14:05;;;;;;;;;;;;;;;16.87;54.2002;102842.9;;;;-72
2023/05/30 18:19:05;;;;;;;;;;;;;;;16.8;54.5293;102840.2;;;;-72
2023/05/30 18:24:04;;;;;;;;;;;;;;;16.75;53.99219;102839.6;;;;-70
2023/05/30 18:25:57;;;;;;;0.2;0.1;;;;;;;;;;;;;-71
2023/05/30 18:29:03;;;;;;;;;;;;;;;16.7;53.38672;102841;;;;-72
2023/05/30 18:34:03;;;;;;;;;;;;;;;16.61;52.83301;102838.3;;;;-72
2023/05/30 18:39:03;;;;;;;;;;;;;;;16.52;53.04883;102838.9;;;;-71
2023/05/30 18:44:03;;;;;;;;;;;;;;;16.49;53.25879;102836.8;;;;-71
2023/05/30 18:49:03;;;;;;;;;;;;;;;16.42;53.375;102833.2;;;;-71
2023/05/30 18:54:04;;;;;;;;;;;;;;;16.35;52.68848;102832.1;;;;-71
2023/05/30 18:56:03;;;;;;;0.2;0.1;;;;;;;;;;;;;-72
2023/05/30 18:59:04;;;;;;;;;;;;;;;16.25;52.54102;102841.2;;;;-70
2023/05/30 19:04:04;;;;;;;;;;;;;;;16.19;53.4707;102841.6;;;;-70
2023/05/30 19:09:05;;;;;;;;;;;;;;;16.12;52.70508;102840.8;;;;-70
2023/05/30 19:14:03;;;;;;;;;;;;;;;16.04;53.1377;102843.3;;;;-70
2023/05/30 19:19:03;;;;;;;;;;;;;;;15.97;53.17383;102846;;;;-72
2023/05/30 19:24:03;;;;;;;;;;;;;;;15.89;53.19922;102847.6;;;;-73
2023/05/30 19:26:02;;;;;;;0.2;0.1;;;;;;;;;;;;;-71
2023/05/30 19:29:06;;;;;;;;;;;;;;;15.84;53.53125;102847.7;;;;-72
2023/05/30 19:34:04;;;;;;;;;;;;;;;15.76;53.85938;102846.7;;;;-72
2023/05/30 19:39:08;;;;;;;;;;;;;;;15.67;53.36426;102845.4;;;;-72
2023/05/30 19:44:04;;;;;;;;;;;;;;;15.61;53.50293;102846.5;;;;-71
2023/05/30 19:49:03;;;;;;;;;;;;;;;15.55;53.49512;102847.9;;;;-71
2023/05/30 19:54:03;;;;;;;;;;;;;;;15.49;53.77051;102846.4;;;;-71
2023/05/30 19:56:04;;;;;;;0.2;0.1;;;;;;;;;;;;;-71
2023/05/30 19:59:05;;;;;;;;;;;;;;;15.43;53.76172;102854.6;;;;-71
2023/05/30 20:04:03;;;;;;;;;;;;;;;15.34;54.24805;102846.9;;;;-72
2023/05/30 20:09:07;;;;;;;;;;;;;;;15.29;54.21875;102851.7;;;;-71
2023/05/30 20:14:03;;;;;;;;;;;;;;;15.23;54.14453;102854.7;;;;-70
2023/05/30 20:19:05;;;;;;;;;;;;;;;15.16;54.49707;102855.5;;;;-71
2023/05/30 20:24:03;;;;;;;;;;;;;;;15.11;54.60352;102850.1;;;;-72
2023/05/30 20:26:07;;;;;;;0.2;0.1;;;;;;;;;;;;;-72
2023/05/30 20:29:03;;;;;;;;;;;;;;;15.04;55.01074;102855.1;;;;-70
2023/05/30 20:34:03;;;;;;;;;;;;;;;15;54.9043;102845;;;;-72
2023/05/30 20:39:03;;;;;;;;;;;;;;;14.94;54.62695;102838.2;;;;-72
2023/05/30 20:44:03;;;;;;;;;;;;;;;14.88;55.30566;102839.7;;;;-70
2023/05/30 20:49:03;;;;;;;;;;;;;;;14.8;55.64551;102834.7;;;;-71
2023/05/30 20:54:04;;;;;;;;;;;;;;;14.75;55.61523;102837;;;;-71
2023/05/30 20:56:08;;;;;;;0.2;0.1;;;;;;;;;;;;;-70
2023/05/30 20:59:03;;;;;;;;;;;;;;;14.67;56.14551;102838.8;;;;-71
2023/05/30 21:04:03;;;;;;;;;;;;;;;14.62;56.24121;102835.4;;;;-70
2023/05/30 21:09:03;;;;;;;;;;;;;;;14.55;56.62695;102838.5;;;;-70
2023/05/30 21:14:03;;;;;;;;;;;;;;;14.52;56.61133;102843;;;;-71
2023/05/30 21:19:07;;;;;;;;;;;;;;;14.47;56.80566;102841.6;;;;-70
2023/05/30 21:24:03;;;;;;;;;;;;;;;14.42;56.81152;102847.5;;;;-71
2023/05/30 21:26:12;;;;;;;0.3;0.1;;;;;;;;;;;;;-70
2023/05/30 21:29:03;;;;;;;;;;;;;;;14.38;57.05273;102838.7;;;;-71
2023/05/30 21:34:05;;;;;;;;;;;;;;;14.35;56.91406;102838.3;;;;-69
2023/05/30 21:39:03;;;;;;;;;;;;;;;14.31;56.80859;102833.9;;;;-70
2023/05/30 21:44:03;;;;;;;;;;;;;;;14.29;56.89648;102839.7;;;;-73
2023/05/30 21:49:06;;;;;;;;;;;;;;;14.23;57.41602;102836.9;;;;-70
2023/05/30 21:54:05;;;;;;;;;;;;;;;14.2;56.97461;102837.7;;;;-72
2023/05/30 21:56:12;;;;;;;0.2;0;;;;;;;;;;;;;-71
2023/05/30 21:59:06;;;;;;;;;;;;;;;14.15;57.11328;102836.5;;;;-71
2023/05/30 22:04:07;;;;;;;;;;;;;;;14.12;57.3457;102840.6;;;;-70
2023/05/30 22:09:03;;;;;;;;;;;;;;;14.07;57.24902;102836.8;;;;-71
2023/05/30 22:14:03;;;;;;;;;;;;;;;14.04;57.14355;102832;;;;-71
2023/05/30 22:19:03;;;;;;;;;;;;;;;13.98;57.99023;102830.1;;;;-71
2023/05/30 22:24:03;;;;;;;;;;;;;;;13.94;58.03027;102828.2;;;;-70
2023/05/30 22:26:14;;;;;;;0.2;0;;;;;;;;;;;;;-71
2023/05/30 22:29:03;;;;;;;;;;;;;;;13.87;57.78418;102834.9;;;;-71
2023/05/30 22:34:03;;;;;;;;;;;;;;;13.8;58.2793;102832.3;;;;-70
2023/05/30 22:39:03;;;;;;;;;;;;;;;13.72;58.31445;102835.9;;;;-71
2023/05/30 22:44:03;;;;;;;;;;;;;;;13.64;58.29395;102837;;;;-71
2023/05/30 22:49:03;;;;;;;;;;;;;;;13.58;58.54297;102842;;;;-72
2023/05/30 22:54:04;;;;;;;;;;;;;;;13.49;58.29492;102837.3;;;;-70
2023/05/30 22:56:16;;;;;;;0.2;0.1;;;;;;;;;;;;;-71
2023/05/30 22:59:03;;;;;;;;;;;;;;;13.4;58.63086;102838.9;;;;-71
2023/05/30 23:04:03;;;;;;;;;;;;;;;13.3;58.89746;102839.1;;;;-69
2023/05/30 23:09:03;;;;;;;;;;;;;;;13.26;58.80273;102854.1;;;;-71
2023/05/30 23:14:03;;;;;;;;;;;;;;;13.17;59.03711;102853.8;;;;-71
2023/05/30 23:19:03;;;;;;;;;;;;;;;13.09;58.51074;102848.6;;;;-69
2023/05/30 23:24:03;;;;;;;;;;;;;;;13.02;59.52051;102852;;;;-68
2023/05/30 23:26:18;;;;;;;0.2;0;;;;;;;;;;;;;-70
2023/05/30 23:29:03;;;;;;;;;;;;;;;12.94;59.58789;102851.9;;;;-68
2023/05/30 23:34:03;;;;;;;;;;;;;;;12.89;59.79492;102857.3;;;;-69
2023/05/30 23:39:03;;;;;;;;;;;;;;;12.83;59.96484;102858.9;;;;-73
2023/05/30 23:44:04;;;;;;;;;;;;;;;12.76;60.04395;102856.2;;;;-69
2023/05/30 23:49:03;;;;;;;;;;;;;;;12.7;59.54395;102855.7;;;;-69
2023/05/30 23:54:03;;;;;;;;;;;;;;;12.66;59.88574;102860.4;;;;-69
2023/05/30 23:56:19;;;;;;;0.2;0.1;;;;;;;;;;;;;-69
2023/05/30 23:59:04;;;;;;;;;;;;;;;12.66;59.68359;102862;;;;-70
